sensor_id;sensor_type;location;lat;lon;timestamp;pressure;altitude;pressure_sealevel;temperature;humidity
21781;BME280;52576;53.614;9.894;2022-09-20T00:00:06;101303.22;;;8.87;100.00
21781;BME280;52576;53.614;9.894;2022-09-20T00:01:14;101307.72;;;8.86;100.00
21781;BME280;52576;53.614;9.894;2022-09-20T00:02:16;101308.72;;;8.85;100.00
21781;BME280;52576;53.614;9.894;2022-09-20T00:03:19;101309.72;;;8.84;100.00
21781;BME280;52576;53.614;9.894;2022-09-20T00:04:21;101310.75;;;8.83;100.00
21781;BME280;52576;53.614;9.894;2022-09-20T00:05:24;101302.94;;;8.82;100.00
21781;BME280;52576;53.614;9.894;2022-09-20T00:06:28;101304.09;;;8.79;100.00
21781;BME280;52576;53.614;9.894;2022-09-20T00:07:32;101319.28;;;8.79;100.00
21781;BME280;52576;53.614;9.894;2022-09-20T00:08:35;101318.44;;;8.78;100.00
21781;BME280;52576;53.614;9.894;2022-09-20T00:09:39;101319.44;;;8.77;100.00
21781;BME280;52576;53.614;9.894;2022-09-20T00:10:41;101313.47;;;8.75;100.00
21781;BME280;52576;53.614;9.894;2022-09-20T00:11:44;101317.78;;;8.76;100.00
21781;BME280;52576;53.614;9.894;2022-09-20T00:12:48;101317.97;;;8.75;100.00
21781;BME280;52576;53.614;9.894;2022-09-20T00:13:53;101323.31;;;8.75;100.00
21781;BME280;52576;53.614;9.894;2022-09-20T00:14:56;101319.97;;;8.73;100.00
21781;BME280;52576;53.614;9.894;2022-09-20T00:16:03;101328.81;;;8.73;100.00
21781;BME280;52576;53.614;9.894;2022-09-20T00:17:06;101315.56;;;8.65;100.00
21781;BME280;52576;53.614;9.894;2022-09-20T00:18:09;101325.50;;;8.71;100.00
21781;BME280;52576;53.614;9.894;2022-09-20T00:19:16;101327.50;;;8.69;100.00
21781;BME280;52576;53.614;9.894;2022-09-20T00:20:20;101324.84;;;8.69;100.00
21781;BME280;52576;53.614;9.894;2022-09-20T00:21:23;101323.19;;;8.68;100.00
21781;BME280;52576;53.614;9.894;2022-09-20T00:22:27;101330.53;;;8.66;100.00
21781;BME280;52576;53.614;9.894;2022-09-20T00:23:29;101325.19;;;8.66;100.00
21781;BME280;52576;53.614;9.894;2022-09-20T00:24:32;101328.88;;;8.65;100.00
21781;BME280;52576;53.614;9.894;2022-09-20T00:25:37;101325.56;;;8.63;100.00
21781;BME280;52576;53.614;9.894;2022-09-20T00:26:40;101330.06;;;8.63;100.00
21781;BME280;52576;53.614;9.894;2022-09-20T00:27:42;101326.72;;;8.61;100.00
21781;BME280;52576;53.614;9.894;2022-09-20T00:28:47;101325.94;;;8.60;100.00
21781;BME280;52576;53.614;9.894;2022-09-20T00:29:49;101331.25;;;8.60;100.00
21781;BME280;52576;53.614;9.894;2022-09-20T00:30:54;101329.09;;;8.56;100.00
21781;BME280;52576;53.614;9.894;2022-09-20T00:31:57;101327.94;;;8.58;100.00
21781;BME280;52576;53.614;9.894;2022-09-20T00:33:00;101334.25;;;8.57;100.00
21781;BME280;52576;53.614;9.894;2022-09-20T00:34:02;101326.44;;;8.56;100.00
21781;BME280;52576;53.614;9.894;2022-09-20T00:35:22;101326.63;;;8.54;100.00
21781;BME280;52576;53.614;9.894;2022-09-20T00:36:25;101333.63;;;8.55;100.00
21781;BME280;52576;53.614;9.894;2022-09-20T00:37:28;101326.63;;;8.54;100.00
21781;BME280;52576;53.614;9.894;2022-09-20T00:38:31;101331.13;;;8.54;100.00
21781;BME280;52576;53.614;9.894;2022-09-20T00:39:33;101327.63;;;8.53;100.00
21781;BME280;52576;53.614;9.894;2022-09-20T00:40:36;101327.63;;;8.53;100.00
21781;BME280;52576;53.614;9.894;2022-09-20T00:41:38;101331.28;;;8.52;100.00
21781;BME280;52576;53.614;9.894;2022-09-20T00:42:41;101335.81;;;8.52;100.00
21781;BME280;52576;53.614;9.894;2022-09-20T00:43:45;101330.66;;;8.50;100.00
21781;BME280;52576;53.614;9.894;2022-09-20T00:44:56;101328.00;;;8.50;100.00
21781;BME280;52576;53.614;9.894;2022-09-20T00:45:59;101328.00;;;8.50;100.00
21781;BME280;52576;53.614;9.894;2022-09-20T00:47:04;101330.84;;;8.49;100.00
21781;BME280;52576;53.614;9.894;2022-09-20T00:48:10;101330.00;;;8.48;100.00
21781;BME280;52576;53.614;9.894;2022-09-20T00:49:18;101321.72;;;8.43;100.00
21781;BME280;52576;53.614;9.894;2022-09-20T00:50:28;101319.22;;;8.42;100.00
21781;BME280;52576;53.614;9.894;2022-09-20T00:51:36;101335.69;;;8.45;100.00
21781;BME280;52576;53.614;9.894;2022-09-20T00:52:41;101331.34;;;8.44;100.00
21781;BME280;52576;53.614;9.894;2022-09-20T00:53:48;101336.69;;;8.44;100.00
21781;BME280;52576;53.614;9.894;2022-09-20T00:54:51;101329.69;;;8.43;100.00
21781;BME280;52576;53.614;9.894;2022-09-20T00:55:58;101333.19;;;8.44;100.00
21781;BME280;52576;53.614;9.894;2022-09-20T00:57:03;101327.88;;;8.44;100.00
21781;BME280;52576;53.614;9.894;2022-09-20T00:58:05;101324.38;;;8.43;100.00
21781;BME280;52576;53.614;9.894;2022-09-20T00:59:15;101286.38;;;8.19;100.00
21781;BME280;52576;53.614;9.894;2022-09-20T01:00:19;101322.38;;;8.37;100.00
21781;BME280;52576;53.614;9.894;2022-09-20T01:01:23;101330.53;;;8.44;100.00
21781;BME280;52576;53.614;9.894;2022-09-20T01:02:27;101324.91;;;8.39;100.00
21781;BME280;52576;53.614;9.894;2022-09-20T01:03:34;101340.34;;;8.43;100.00
21781;BME280;52576;53.614;9.894;2022-09-20T01:04:38;101333.34;;;8.42;100.00
21781;BME280;52576;53.614;9.894;2022-09-20T01:05:43;101335.88;;;8.44;100.00
21781;BME280;52576;53.614;9.894;2022-09-20T01:06:47;101334.19;;;8.43;100.00
21781;BME280;52576;53.614;9.894;2022-09-20T01:07:51;101334.19;;;8.43;100.00
21781;BME280;52576;53.614;9.894;2022-09-20T01:08:55;101332.06;;;8.38;100.00
21781;BME280;52576;53.614;9.894;2022-09-20T01:10:00;101329.88;;;8.42;100.00
21781;BME280;52576;53.614;9.894;2022-09-20T01:11:02;101330.69;;;8.42;100.00
21781;BME280;52576;53.614;9.894;2022-09-20T01:12:08;101331.69;;;8.41;100.00
21781;BME280;52576;53.614;9.894;2022-09-20T01:13:10;101331.53;;;8.43;100.00
21781;BME280;52576;53.614;9.894;2022-09-20T01:14:14;101325.53;;;8.41;100.00
21781;BME280;52576;53.614;9.894;2022-09-20T01:15:20;101330.88;;;8.41;100.00
21781;BME280;52576;53.614;9.894;2022-09-20T01:16:25;101330.06;;;8.40;100.00
21781;BME280;52576;53.614;9.894;2022-09-20T01:17:30;101335.22;;;8.42;100.00
21781;BME280;52576;53.614;9.894;2022-09-20T01:18:35;101337.03;;;8.41;100.00
21781;BME280;52576;53.614;9.894;2022-09-20T01:19:43;101332.53;;;8.42;100.00
21781;BME280;52576;53.614;9.894;2022-09-20T01:20:49;101339.69;;;8.41;100.00
21781;BME280;52576;53.614;9.894;2022-09-20T01:21:52;101332.53;;;8.42;100.00
21781;BME280;52576;53.614;9.894;2022-09-20T01:23:10;101337.03;;;8.41;100.00
21781;BME280;52576;53.614;9.894;2022-09-20T01:24:21;101338.69;;;8.42;100.00
21781;BME280;52576;53.614;9.894;2022-09-20T01:25:46;101337.03;;;8.41;100.00
21781;BME280;52576;53.614;9.894;2022-09-20T01:27:12;101330.06;;;8.40;100.00
21781;BME280;52576;53.614;9.894;2022-09-20T01:28:20;101330.06;;;8.40;100.00
21781;BME280;52576;53.614;9.894;2022-09-20T01:30:53;101330.22;;;8.39;100.00
21781;BME280;52576;53.614;9.894;2022-09-20T01:32:06;101331.03;;;8.39;100.00
21781;BME280;52576;53.614;9.894;2022-09-20T01:33:16;101334.72;;;8.38;100.00
21781;BME280;52576;53.614;9.894;2022-09-20T01:34:28;101334.91;;;8.37;100.00
21781;BME280;52576;53.614;9.894;2022-09-20T01:35:33;101335.72;;;8.37;100.00
21781;BME280;52576;53.614;9.894;2022-09-20T01:36:42;101336.72;;;8.36;100.00
21781;BME280;52576;53.614;9.894;2022-09-20T01:38:02;101338.56;;;8.36;100.00
21781;BME280;52576;53.614;9.894;2022-09-20T01:39:10;101343.88;;;8.36;100.00
21781;BME280;52576;53.614;9.894;2022-09-20T01:40:19;101336.91;;;8.35;100.00
21781;BME280;52576;53.614;9.894;2022-09-20T01:41:27;101338.44;;;8.29;100.00
21781;BME280;52576;53.614;9.894;2022-09-20T01:42:35;101342.41;;;8.33;100.00
21781;BME280;52576;53.614;9.894;2022-09-20T01:43:44;101343.25;;;8.34;100.00
21781;BME280;52576;53.614;9.894;2022-09-20T01:44:58;101350.41;;;8.33;100.00
21781;BME280;52576;53.614;9.894;2022-09-20T01:46:13;101353.06;;;8.33;100.00
21781;BME280;52576;53.614;9.894;2022-09-20T01:47:30;101353.25;;;8.32;100.00
21781;BME280;52576;53.614;9.894;2022-09-20T01:48:37;101349.75;;;8.31;100.00
21781;BME280;52576;53.614;9.894;2022-09-20T01:49:46;101348.91;;;8.31;100.00
21781;BME280;52576;53.614;9.894;2022-09-20T01:51:16;101355.25;;;8.30;100.00
21781;BME280;52576;53.614;9.894;2022-09-20T01:56:36;101363.44;;;8.28;100.00
21781;BME280;52576;53.614;9.894;2022-09-20T01:58:03;101359.91;;;8.28;100.00
21781;BME280;52576;53.614;9.894;2022-09-20T01:59:35;101354.59;;;8.28;100.00
21781;BME280;52576;53.614;9.894;2022-09-20T02:00:59;101354.78;;;8.26;100.00
21781;BME280;52576;53.614;9.894;2022-09-20T02:02:23;101358.47;;;8.25;100.00
21781;BME280;52576;53.614;9.894;2022-09-20T02:03:56;101363.13;;;8.23;100.00
21781;BME280;52576;53.614;9.894;2022-09-20T02:05:26;101364.06;;;8.22;100.00
21781;BME280;52576;53.614;9.894;2022-09-20T02:06:44;101365.09;;;8.21;100.00
21781;BME280;52576;53.614;9.894;2022-09-20T02:08:02;101361.59;;;8.21;100.00
21781;BME280;52576;53.614;9.894;2022-09-20T02:09:48;101364.44;;;8.19;100.00
21781;BME280;52576;53.614;9.894;2022-09-20T02:11:08;101357.13;;;8.13;100.00
21781;BME280;52576;53.614;9.894;2022-09-20T02:12:24;101354.97;;;8.17;100.00
21781;BME280;52576;53.614;9.894;2022-09-20T02:15:07;101359.16;;;8.11;100.00
21781;BME280;52576;53.614;9.894;2022-09-20T02:16:27;101363.31;;;8.14;100.00
21781;BME280;52576;53.614;9.894;2022-09-20T02:17:34;101366.78;;;8.14;100.00
21781;BME280;52576;53.614;9.894;2022-09-20T02:18:54;101366.13;;;8.12;100.00
21781;BME280;52576;53.614;9.894;2022-09-20T02:20:22;101361.63;;;8.13;100.00
21781;BME280;52576;53.614;9.894;2022-09-20T02:21:37;101366.47;;;8.09;100.00
21781;BME280;52576;53.614;9.894;2022-09-20T02:22:43;101366.13;;;8.12;100.00
21781;BME280;52576;53.614;9.894;2022-09-20T02:23:56;101361.81;;;8.11;100.00
21781;BME280;52576;53.614;9.894;2022-09-20T02:25:11;101358.66;;;8.08;100.00
21781;BME280;52576;53.614;9.894;2022-09-20T02:26:30;101374.28;;;8.11;100.00
21781;BME280;52576;53.614;9.894;2022-09-20T02:27:42;101369.97;;;8.10;100.00
21781;BME280;52576;53.614;9.894;2022-09-20T02:28:52;101373.66;;;8.09;100.00
21781;BME280;52576;53.614;9.894;2022-09-20T02:30:06;101366.66;;;8.08;100.00
21781;BME280;52576;53.614;9.894;2022-09-20T02:31:16;101371.13;;;8.07;100.00
21781;BME280;52576;53.614;9.894;2022-09-20T02:32:41;101369.47;;;8.06;100.00
21781;BME280;52576;53.614;9.894;2022-09-20T02:34:06;101369.66;;;8.05;100.00
21781;BME280;52576;53.614;9.894;2022-09-20T02:35:28;101372.31;;;8.05;100.00
21781;BME280;52576;53.614;9.894;2022-09-20T02:36:40;101368.81;;;8.04;100.00
21781;BME280;52576;53.614;9.894;2022-09-20T02:38:03;101370.69;;;8.04;100.00
21781;BME280;52576;53.614;9.894;2022-09-20T02:39:10;101378.81;;;8.02;100.00
21781;BME280;52576;53.614;9.894;2022-09-20T02:40:25;101377.16;;;8.01;100.00
21781;BME280;52576;53.614;9.894;2022-09-20T02:41:51;101382.50;;;8.01;100.00
21781;BME280;52576;53.614;9.894;2022-09-20T02:43:01;101385.16;;;8.01;100.00
21781;BME280;52576;53.614;9.894;2022-09-20T02:44:08;101383.69;;;7.99;100.00
21781;BME280;52576;53.614;9.894;2022-09-20T02:45:19;101381.81;;;7.99;100.00
21781;BME280;52576;53.614;9.894;2022-09-20T02:46:24;101385.50;;;7.98;100.00
21781;BME280;52576;53.614;9.894;2022-09-20T02:47:32;101380.19;;;7.98;100.00
21781;BME280;52576;53.614;9.894;2022-09-20T02:48:41;101387.50;;;7.96;100.00
21781;BME280;52576;53.614;9.894;2022-09-20T02:49:54;101391.81;;;7.97;100.00
21781;BME280;52576;53.614;9.894;2022-09-20T02:51:04;101385.84;;;7.95;100.00
21781;BME280;52576;53.614;9.894;2022-09-20T02:52:16;101388.69;;;7.94;100.00
21781;BME280;52576;53.614;9.894;2022-09-20T02:53:34;101388.84;;;7.92;100.00
21781;BME280;52576;53.614;9.894;2022-09-20T02:54:45;101385.38;;;7.92;100.00
21781;BME280;52576;53.614;9.894;2022-09-20T02:56:00;101390.88;;;7.90;100.00
21781;BME280;52576;53.614;9.894;2022-09-20T02:57:13;101391.03;;;7.89;100.00
21781;BME280;52576;53.614;9.894;2022-09-20T02:58:29;101392.84;;;7.88;100.00
21781;BME280;52576;53.614;9.894;2022-09-20T02:59:38;101392.19;;;7.86;100.00
21781;BME280;52576;53.614;9.894;2022-09-20T03:00:47;101388.69;;;7.86;100.00
21781;BME280;52576;53.614;9.894;2022-09-20T03:02:00;101386.38;;;7.83;100.00
21781;BME280;52576;53.614;9.894;2022-09-20T03:03:09;101396.19;;;7.82;100.00
21781;BME280;52576;53.614;9.894;2022-09-20T03:04:36;101393.69;;;7.81;100.00
21781;BME280;52576;53.614;9.894;2022-09-20T03:05:46;101398.22;;;7.80;100.00
21781;BME280;52576;53.614;9.894;2022-09-20T03:06:58;101390.41;;;7.79;100.00
21781;BME280;52576;53.614;9.894;2022-09-20T03:08:14;101388.72;;;7.78;100.00
21781;BME280;52576;53.614;9.894;2022-09-20T03:09:28;101402.88;;;7.78;100.00
21781;BME280;52576;53.614;9.894;2022-09-20T03:10:34;101405.72;;;7.77;100.00
21781;BME280;52576;53.614;9.894;2022-09-20T03:11:46;101399.53;;;7.76;100.00
21781;BME280;52576;53.614;9.894;2022-09-20T03:12:59;101401.38;;;7.76;100.00
21781;BME280;52576;53.614;9.894;2022-09-20T03:14:12;101404.19;;;7.74;100.00
21781;BME280;52576;53.614;9.894;2022-09-20T03:15:21;101405.56;;;7.70;100.00
21781;BME280;52576;53.614;9.894;2022-09-20T03:16:42;101408.84;;;7.72;100.00
21781;BME280;52576;53.614;9.894;2022-09-20T03:18:03;101414.19;;;7.72;100.00
21781;BME280;52576;53.614;9.894;2022-09-20T03:19:14;101417.84;;;7.71;100.00
21781;BME280;52576;53.614;9.894;2022-09-20T03:20:27;101417.00;;;7.71;100.00
21781;BME280;52576;53.614;9.894;2022-09-20T03:21:40;101413.53;;;7.70;100.00
21781;BME280;52576;53.614;9.894;2022-09-20T03:22:54;101408.34;;;7.68;100.00
21781;BME280;52576;53.614;9.894;2022-09-20T03:24:05;101421.66;;;7.68;100.00
21781;BME280;52576;53.614;9.894;2022-09-20T03:25:37;101413.06;;;7.67;100.00
21781;BME280;52576;53.614;9.894;2022-09-20T03:26:51;101414.03;;;7.65;100.00
21781;BME280;52576;53.614;9.894;2022-09-20T03:28:05;101414.19;;;7.64;100.00
21781;BME280;52576;53.614;9.894;2022-09-20T03:29:21;101412.38;;;7.64;100.00
21781;BME280;52576;53.614;9.894;2022-09-20T03:30:39;101416.88;;;7.64;100.00
21781;BME280;52576;53.614;9.894;2022-09-20T03:31:58;101416.19;;;7.62;100.00
21781;BME280;52576;53.614;9.894;2022-09-20T03:33:10;101413.53;;;7.62;100.00
21781;BME280;52576;53.614;9.894;2022-09-20T03:34:28;101411.88;;;7.61;100.00
21781;BME280;52576;53.614;9.894;2022-09-20T03:35:45;101415.56;;;7.60;100.00
21781;BME280;52576;53.614;9.894;2022-09-20T03:37:00;101406.41;;;7.54;100.00
21781;BME280;52576;53.614;9.894;2022-09-20T03:38:16;101411.22;;;7.59;100.00
21781;BME280;52576;53.614;9.894;2022-09-20T03:39:31;101414.72;;;7.59;100.00
21781;BME280;52576;53.614;9.894;2022-09-20T03:40:54;101408.56;;;7.59;100.00
21781;BME280;52576;53.614;9.894;2022-09-20T03:42:10;101414.72;;;7.59;100.00
21781;BME280;52576;53.614;9.894;2022-09-20T03:43:23;101413.88;;;7.59;100.00
21781;BME280;52576;53.614;9.894;2022-09-20T03:44:49;101407.72;;;7.58;100.00
21781;BME280;52576;53.614;9.894;2022-09-20T03:46:05;101406.56;;;7.53;100.00
21781;BME280;52576;53.614;9.894;2022-09-20T03:47:25;101409.56;;;7.58;100.00
21781;BME280;52576;53.614;9.894;2022-09-20T03:48:52;101410.53;;;7.57;100.00
21781;BME280;52576;53.614;9.894;2022-09-20T03:50:13;101407.88;;;7.57;100.00
21781;BME280;52576;53.614;9.894;2022-09-20T03:51:27;101415.06;;;7.56;100.00
21781;BME280;52576;53.614;9.894;2022-09-20T03:52:50;101407.25;;;7.55;100.00
21781;BME280;52576;53.614;9.894;2022-09-20T03:55:57;101415.72;;;7.50;100.00
21781;BME280;52576;53.614;9.894;2022-09-20T03:57:18;101415.72;;;7.50;100.00
21781;BME280;52576;53.614;9.894;2022-09-20T03:58:40;101414.06;;;7.49;100.00
21781;BME280;52576;53.614;9.894;2022-09-20T04:00:03;101418.53;;;7.49;100.00
21781;BME280;52576;53.614;9.894;2022-09-20T04:01:26;101416.06;;;7.47;100.00
21781;BME280;52576;53.614;9.894;2022-09-20T04:04:17;101408.94;;;7.40;100.00
21781;BME280;52576;53.614;9.894;2022-09-20T04:05:27;101415.38;;;7.45;100.00
21781;BME280;52576;53.614;9.894;2022-09-20T04:06:48;101413.91;;;7.43;100.00
21781;BME280;52576;53.614;9.894;2022-09-20T04:08:07;101415.72;;;7.42;100.00
21781;BME280;52576;53.614;9.894;2022-09-20T04:09:38;101431.88;;;7.41;100.00
21781;BME280;52576;53.614;9.894;2022-09-20T04:10:54;101416.25;;;7.38;100.00
21781;BME280;52576;53.614;9.894;2022-09-20T04:12:08;101416.59;;;7.35;100.00
21781;BME280;52576;53.614;9.894;2022-09-20T04:13:27;101426.22;;;7.36;100.00
21781;BME280;52576;53.614;9.894;2022-09-20T04:14:38;101428.03;;;7.35;100.00
21781;BME280;52576;53.614;9.894;2022-09-20T04:15:55;101431.69;;;7.34;100.00
21781;BME280;52576;53.614;9.894;2022-09-20T04:17:04;101438.00;;;7.33;100.00
21781;BME280;52576;53.614;9.894;2022-09-20T04:18:22;101429.38;;;7.31;100.00
21781;BME280;52576;53.614;9.894;2022-09-20T04:19:36;101432.03;;;7.31;100.00
21781;BME280;52576;53.614;9.894;2022-09-20T04:20:44;101431.38;;;7.29;100.00
21781;BME280;52576;53.614;9.894;2022-09-20T04:21:52;101431.53;;;7.28;100.00
21781;BME280;52576;53.614;9.894;2022-09-20T04:23:01;101419.06;;;7.20;100.00
21781;BME280;52576;53.614;9.894;2022-09-20T04:24:11;101429.53;;;7.22;100.00
21781;BME280;52576;53.614;9.894;2022-09-20T04:25:26;101432.00;;;7.23;100.00
21781;BME280;52576;53.614;9.894;2022-09-20T04:26:33;101435.50;;;7.24;100.00
21781;BME280;52576;53.614;9.894;2022-09-20T04:27:41;101434.84;;;7.22;100.00
21781;BME280;52576;53.614;9.894;2022-09-20T04:28:49;101440.16;;;7.22;100.00
21781;BME280;52576;53.614;9.894;2022-09-20T04:29:58;101433.19;;;7.21;100.00
21781;BME280;52576;53.614;9.894;2022-09-20T04:31:05;101441.19;;;7.21;100.00
21781;BME280;52576;53.614;9.894;2022-09-20T04:32:20;101443.84;;;7.21;100.00
21781;BME280;52576;53.614;9.894;2022-09-20T04:33:30;101441.19;;;7.21;100.00
21781;BME280;52576;53.614;9.894;2022-09-20T04:34:38;101439.66;;;7.18;100.00
21781;BME280;52576;53.614;9.894;2022-09-20T04:36:12;101440.66;;;7.17;100.00
21781;BME280;52576;53.614;9.894;2022-09-20T04:37:32;101447.00;;;7.16;100.00
21781;BME280;52576;53.614;9.894;2022-09-20T04:38:37;101446.16;;;7.16;100.00
21781;BME280;52576;53.614;9.894;2022-09-20T04:39:47;101441.84;;;7.15;100.00
21781;BME280;52576;53.614;9.894;2022-09-20T04:41:11;101435.00;;;7.12;100.00
21781;BME280;52576;53.614;9.894;2022-09-20T04:44:22;101443.16;;;7.11;100.00
21781;BME280;52576;53.614;9.894;2022-09-20T04:45:56;101450.31;;;7.10;100.00
21781;BME280;52576;53.614;9.894;2022-09-20T04:47:37;101452.16;;;7.10;100.00
21781;BME280;52576;53.614;9.894;2022-09-20T04:49:09;101449.63;;;7.08;100.00
21781;BME280;52576;53.614;9.894;2022-09-20T04:50:37;101451.63;;;7.06;100.00
21781;BME280;52576;53.614;9.894;2022-09-20T04:55:31;101453.63;;;7.04;100.00
21781;BME280;52576;53.614;9.894;2022-09-20T04:56:50;101448.47;;;7.03;100.00
21781;BME280;52576;53.614;9.894;2022-09-20T04:58:21;101460.75;;;7.04;100.00
21781;BME280;52576;53.614;9.894;2022-09-20T04:59:46;101457.25;;;7.03;100.00
21781;BME280;52576;53.614;9.894;2022-09-20T05:04:39;101462.75;;;7.02;100.00
21781;BME280;52576;53.614;9.894;2022-09-20T05:06:12;101455.63;;;7.02;100.00
21781;BME280;52576;53.614;9.894;2022-09-20T05:08:00;101452.44;;;6.99;100.00
21781;BME280;52576;53.614;9.894;2022-09-20T05:09:42;101471.72;;;7.01;100.00
21781;BME280;52576;53.614;9.894;2022-09-20T05:12:38;101472.06;;;6.98;100.00
21781;BME280;52576;53.614;9.894;2022-09-20T05:14:00;101476.03;;;7.02;100.00
21781;BME280;52576;53.614;9.894;2022-09-20T05:16:43;101470.56;;;7.03;100.00
21781;BME280;52576;53.614;9.894;2022-09-20T05:18:12;101468.75;;;7.04;100.00
21781;BME280;52576;53.614;9.894;2022-09-20T05:19:28;101481.88;;;7.05;100.00
21781;BME280;52576;53.614;9.894;2022-09-20T05:20:44;101474.56;;;7.07;100.00
21781;BME280;52576;53.614;9.894;2022-09-20T05:22:02;101481.41;;;7.10;100.00
21781;BME280;52576;53.614;9.894;2022-09-20T05:25:06;101481.88;;;7.13;100.00
21781;BME280;52576;53.614;9.894;2022-09-20T05:26:22;101496.88;;;7.14;100.00
21781;BME280;52576;53.614;9.894;2022-09-20T05:27:38;101490.53;;;7.15;100.00
21781;BME280;52576;53.614;9.894;2022-09-20T05:28:52;101493.03;;;7.17;100.00
21781;BME280;52576;53.614;9.894;2022-09-20T05:30:02;101490.38;;;7.17;100.00
21781;BME280;52576;53.614;9.894;2022-09-20T05:31:10;101494.72;;;7.18;100.00
21781;BME280;52576;53.614;9.894;2022-09-20T05:32:22;101494.53;;;7.19;100.00
21781;BME280;52576;53.614;9.894;2022-09-20T05:33:31;101495.38;;;7.20;100.00
21781;BME280;52576;53.614;9.894;2022-09-20T05:34:47;101493.03;;;7.17;100.00
21781;BME280;52576;53.614;9.894;2022-09-20T05:36:00;101495.03;;;7.23;100.00
21781;BME280;52576;53.614;9.894;2022-09-20T05:37:15;101490.53;;;7.23;100.00
21781;BME280;52576;53.614;9.894;2022-09-20T05:38:23;101494.03;;;7.24;100.00
21781;BME280;52576;53.614;9.894;2022-09-20T05:39:35;101497.38;;;7.26;100.00
21781;BME280;52576;53.614;9.894;2022-09-20T05:41:05;101499.03;;;7.27;100.00
21781;BME280;52576;53.614;9.894;2022-09-20T05:42:15;101506.03;;;7.28;100.00
21781;BME280;52576;53.614;9.894;2022-09-20T05:43:23;101497.19;;;7.27;100.00
21781;BME280;52576;53.614;9.894;2022-09-20T05:44:56;101500.19;;;7.32;100.00
21781;BME280;52576;53.614;9.894;2022-09-20T05:46:09;101501.03;;;7.33;100.00
21781;BME280;52576;53.614;9.894;2022-09-20T05:47:18;101500.03;;;7.34;100.00
21781;BME280;52576;53.614;9.894;2022-09-20T05:48:30;101499.69;;;7.37;100.00
21781;BME280;52576;53.614;9.894;2022-09-20T05:49:49;101501.38;;;7.38;100.00
21781;BME280;52576;53.614;9.894;2022-09-20T05:50:58;101499.69;;;7.37;100.00
21781;BME280;52576;53.614;9.894;2022-09-20T05:52:14;101502.69;;;7.42;100.00
21781;BME280;52576;53.614;9.894;2022-09-20T05:53:49;101498.03;;;7.44;100.00
21781;BME280;52576;53.614;9.894;2022-09-20T05:55:10;101502.22;;;7.46;100.00
21781;BME280;52576;53.614;9.894;2022-09-20T05:56:24;101509.03;;;7.49;100.00
21781;BME280;52576;53.614;9.894;2022-09-20T05:57:41;101497.41;;;7.50;100.00
21781;BME280;52576;53.614;9.894;2022-09-20T05:58:56;101508.38;;;7.55;100.00
21781;BME280;52576;53.614;9.894;2022-09-20T06:00:13;101508.03;;;7.58;100.00
21781;BME280;52576;53.614;9.894;2022-09-20T06:01:19;101507.88;;;7.59;100.00
21781;BME280;52576;53.614;9.894;2022-09-20T06:02:33;101500.06;;;7.58;100.00
21781;BME280;52576;53.614;9.894;2022-09-20T06:03:41;101515.19;;;7.65;100.00
21781;BME280;52576;53.614;9.894;2022-09-20T06:04:53;101513.38;;;7.66;100.00
21781;BME280;52576;53.614;9.894;2022-09-20T06:06:03;101516.53;;;7.70;100.00
21781;BME280;52576;53.614;9.894;2022-09-20T06:07:20;101520.66;;;7.72;100.00
21781;BME280;52576;53.614;9.894;2022-09-20T06:08:41;101513.53;;;7.73;100.00
21781;BME280;52576;53.614;9.894;2022-09-20T06:11:47;101525.84;;;7.82;100.00
21781;BME280;52576;53.614;9.894;2022-09-20T06:12:59;101524.50;;;7.86;100.00
21781;BME280;52576;53.614;9.894;2022-09-20T06:14:15;101520.00;;;7.86;100.00
21781;BME280;52576;53.614;9.894;2022-09-20T06:15:26;101525.66;;;7.91;100.00
21781;BME280;52576;53.614;9.894;2022-09-20T06:16:39;101519.00;;;7.95;100.00
21781;BME280;52576;53.614;9.894;2022-09-20T06:17:49;101522.97;;;7.99;100.00
21781;BME280;52576;53.614;9.894;2022-09-20T06:19:00;101527.97;;;8.02;100.00
21781;BME280;52576;53.614;9.894;2022-09-20T06:20:15;101522.31;;;8.05;100.00
21781;BME280;52576;53.614;9.894;2022-09-20T06:21:28;101518.47;;;8.08;100.00
21781;BME280;52576;53.614;9.894;2022-09-20T06:22:37;101524.31;;;8.11;100.00
21781;BME280;52576;53.614;9.894;2022-09-20T06:23:42;101515.16;;;8.14;100.00
21781;BME280;52576;53.614;9.894;2022-09-20T06:24:47;101517.31;;;8.18;100.00
21781;BME280;52576;53.614;9.894;2022-09-20T06:25:52;101523.94;;;8.22;100.00
21781;BME280;52576;53.614;9.894;2022-09-20T06:26:58;101518.50;;;8.24;100.00
21781;BME280;52576;53.614;9.894;2022-09-20T06:28:05;101523.47;;;8.27;100.00
21781;BME280;52576;53.614;9.894;2022-09-20T06:29:13;101513.00;;;8.25;100.00
21781;BME280;52576;53.614;9.894;2022-09-20T06:30:21;101526.28;;;8.33;100.00
21781;BME280;52576;53.614;9.894;2022-09-20T06:31:26;101527.59;;;8.37;100.00
21781;BME280;52576;53.614;9.894;2022-09-20T06:32:28;101530.91;;;8.39;100.00
21781;BME280;52576;53.614;9.894;2022-09-20T06:33:32;101524.25;;;8.43;100.00
21781;BME280;52576;53.614;9.894;2022-09-20T06:34:34;101520.25;;;8.39;100.00
21781;BME280;52576;53.614;9.894;2022-09-20T06:35:43;101525.41;;;8.49;100.00
21781;BME280;52576;53.614;9.894;2022-09-20T06:36:50;101528.53;;;8.52;100.00
21781;BME280;52576;53.614;9.894;2022-09-20T06:40:00;101529.16;;;8.62;100.00
21781;BME280;52576;53.614;9.894;2022-09-20T06:41:22;101527.84;;;8.66;100.00
21781;BME280;52576;53.614;9.894;2022-09-20T06:42:32;101532.66;;;8.71;100.00
21781;BME280;52576;53.614;9.894;2022-09-20T06:43:35;101536.81;;;8.73;100.00
21781;BME280;52576;53.614;9.894;2022-09-20T06:44:41;101531.97;;;8.77;100.00
21781;BME280;52576;53.614;9.894;2022-09-20T06:45:44;101532.47;;;8.80;100.00
21781;BME280;52576;53.614;9.894;2022-09-20T06:46:46;101533.94;;;8.83;100.00
21781;BME280;52576;53.614;9.894;2022-09-20T06:47:49;101539.75;;;8.86;100.00